sensor_id;sensor_type;location;lat;lon;timestamp;pressure;altitude;pressure_sealevel;temperature
35582;BMP180;21687;48.900;9.188;2023-04-24T00:00:31;97417.00;;;9.80
35582;BMP180;21687;48.900;9.188;2023-04-24T00:02:58;97415.00;;;9.80
35582;BMP180;21687;48.900;9.188;2023-04-24T00:05:25;97420.00;;;10.00
35582;BMP180;21687;48.900;9.188;2023-04-24T00:07:52;97417.00;;;10.10
35582;BMP180;21687;48.900;9.188;2023-04-24T00:10:18;97418.00;;;10.20
35582;BMP180;21687;48.900;9.188;2023-04-24T00:12:45;97421.00;;;10.20
35582;BMP180;21687;48.900;9.188;2023-04-24T00:15:11;97416.00;;;10.30
35582;BMP180;21687;48.900;9.188;2023-04-24T00:17:38;97433.00;;;10.40
35582;BMP180;21687;48.900;9.188;2023-04-24T00:20:05;97432.00;;;10.40
35582;BMP180;21687;48.900;9.188;2023-04-24T00:22:33;97436.00;;;10.40
35582;BMP180;21687;48.900;9.188;2023-04-24T00:24:59;97418.00;;;10.50
35582;BMP180;21687;48.900;9.188;2023-04-24T00:27:26;97434.00;;;10.50
35582;BMP180;21687;48.900;9.188;2023-04-24T00:29:52;97427.00;;;10.50
35582;BMP180;21687;48.900;9.188;2023-04-24T00:32:18;97425.00;;;10.60
35582;BMP180;21687;48.900;9.188;2023-04-24T00:34:45;97430.00;;;10.60
35582;BMP180;21687;48.900;9.188;2023-04-24T00:37:11;97431.00;;;10.60
35582;BMP180;21687;48.900;9.188;2023-04-24T00:39:37;97422.00;;;10.60
35582;BMP180;21687;48.900;9.188;2023-04-24T00:42:04;97438.00;;;10.70
35582;BMP180;21687;48.900;9.188;2023-04-24T00:44:33;97433.00;;;10.70
35582;BMP180;21687;48.900;9.188;2023-04-24T00:47:00;97421.00;;;10.70
35582;BMP180;21687;48.900;9.188;2023-04-24T00:49:27;97423.00;;;10.60
35582;BMP180;21687;48.900;9.188;2023-04-24T00:51:53;97427.00;;;10.60
35582;BMP180;21687;48.900;9.188;2023-04-24T00:54:20;97415.00;;;10.60
35582;BMP180;21687;48.900;9.188;2023-04-24T00:56:46;97414.00;;;10.60
35582;BMP180;21687;48.900;9.188;2023-04-24T00:59:13;97424.00;;;10.60
35582;BMP180;21687;48.900;9.188;2023-04-24T01:01:41;97416.00;;;10.60
35582;BMP180;21687;48.900;9.188;2023-04-24T01:04:09;97417.00;;;10.60
35582;BMP180;21687;48.900;9.188;2023-04-24T01:06:38;97423.00;;;10.60
35582;BMP180;21687;48.900;9.188;2023-04-24T01:09:05;97411.00;;;10.60
35582;BMP180;21687;48.900;9.188;2023-04-24T01:11:34;97412.00;;;10.60
35582;BMP180;21687;48.900;9.188;2023-04-24T01:14:00;97410.00;;;10.60
35582;BMP180;21687;48.900;9.188;2023-04-24T01:16:27;97413.00;;;10.60
35582;BMP180;21687;48.900;9.188;2023-04-24T01:18:53;97406.00;;;10.60
35582;BMP180;21687;48.900;9.188;2023-04-24T01:21:20;97406.00;;;10.50
35582;BMP180;21687;48.900;9.188;2023-04-24T01:23:47;97406.00;;;10.60
35582;BMP180;21687;48.900;9.188;2023-04-24T01:26:15;97404.00;;;10.50
35582;BMP180;21687;48.900;9.188;2023-04-24T01:28:41;97400.00;;;10.50
35582;BMP180;21687;48.900;9.188;2023-04-24T01:31:08;97393.00;;;10.40
35582;BMP180;21687;48.900;9.188;2023-04-24T01:33:34;97391.00;;;10.30
35582;BMP180;21687;48.900;9.188;2023-04-24T01:36:01;97365.00;;;10.20
35582;BMP180;21687;48.900;9.188;2023-04-24T01:38:27;97379.00;;;10.20
35582;BMP180;21687;48.900;9.188;2023-04-24T01:40:54;97381.00;;;10.20
35582;BMP180;21687;48.900;9.188;2023-04-24T01:43:20;97393.00;;;10.10
35582;BMP180;21687;48.900;9.188;2023-04-24T01:45:47;97387.00;;;10.10
35582;BMP180;21687;48.900;9.188;2023-04-24T01:48:14;97380.00;;;10.10
35582;BMP180;21687;48.900;9.188;2023-04-24T01:50:40;97378.00;;;10.00
35582;BMP180;21687;48.900;9.188;2023-04-24T01:53:07;97382.00;;;10.00
35582;BMP180;21687;48.900;9.188;2023-04-24T01:55:33;97376.00;;;10.00
35582;BMP180;21687;48.900;9.188;2023-04-24T01:58:00;97377.00;;;10.00
35582;BMP180;21687;48.900;9.188;2023-04-24T02:00:27;97372.00;;;9.80
35582;BMP180;21687;48.900;9.188;2023-04-24T02:02:53;97388.00;;;9.80
35582;BMP180;21687;48.900;9.188;2023-04-24T02:05:19;97378.00;;;9.80
35582;BMP180;21687;48.900;9.188;2023-04-24T02:07:46;97376.00;;;9.70
35582;BMP180;21687;48.900;9.188;2023-04-24T02:10:12;97388.00;;;9.70
35582;BMP180;21687;48.900;9.188;2023-04-24T02:12:39;97392.00;;;9.70
35582;BMP180;21687;48.900;9.188;2023-04-24T02:15:05;97382.00;;;9.60
35582;BMP180;21687;48.900;9.188;2023-04-24T02:17:32;97374.00;;;9.60
35582;BMP180;21687;48.900;9.188;2023-04-24T02:19:59;97381.00;;;9.60
35582;BMP180;21687;48.900;9.188;2023-04-24T02:22:25;97383.00;;;9.70
35582;BMP180;21687;48.900;9.188;2023-04-24T02:24:51;97387.00;;;9.70
35582;BMP180;21687;48.900;9.188;2023-04-24T02:27:17;97381.00;;;9.80
35582;BMP180;21687;48.900;9.188;2023-04-24T02:29:44;97384.00;;;9.90
35582;BMP180;21687;48.900;9.188;2023-04-24T02:32:10;97387.00;;;10.00
35582;BMP180;21687;48.900;9.188;2023-04-24T02:34:38;97389.00;;;10.10
35582;BMP180;21687;48.900;9.188;2023-04-24T02:37:04;97396.00;;;10.10
35582;BMP180;21687;48.900;9.188;2023-04-24T02:39:31;97394.00;;;10.20
35582;BMP180;21687;48.900;9.188;2023-04-24T02:41:57;97398.00;;;10.10
35582;BMP180;21687;48.900;9.188;2023-04-24T02:44:24;97385.00;;;10.00
35582;BMP180;21687;48.900;9.188;2023-04-24T02:46:50;97395.00;;;9.90
35582;BMP180;21687;48.900;9.188;2023-04-24T02:49:16;97401.00;;;9.80
35582;BMP180;21687;48.900;9.188;2023-04-24T02:51:43;97408.00;;;9.70
35582;BMP180;21687;48.900;9.188;2023-04-24T02:54:09;97389.00;;;9.70
35582;BMP180;21687;48.900;9.188;2023-04-24T02:56:36;97381.00;;;9.50
35582;BMP180;21687;48.900;9.188;2023-04-24T02:59:02;97383.00;;;9.40
35582;BMP180;21687;48.900;9.188;2023-04-24T03:01:29;97378.00;;;9.40
35582;BMP180;21687;48.900;9.188;2023-04-24T03:03:55;97379.00;;;9.20
35582;BMP180;21687;48.900;9.188;2023-04-24T03:06:21;97375.00;;;9.20
35582;BMP180;21687;48.900;9.188;2023-04-24T03:08:47;97379.00;;;9.10
35582;BMP180;21687;48.900;9.188;2023-04-24T03:11:14;97382.00;;;9.10
35582;BMP180;21687;48.900;9.188;2023-04-24T03:13:41;97373.00;;;9.10
35582;BMP180;21687;48.900;9.188;2023-04-24T03:16:08;97375.00;;;9.00
35582;BMP180;21687;48.900;9.188;2023-04-24T03:18:34;97366.00;;;9.00
35582;BMP180;21687;48.900;9.188;2023-04-24T03:21:01;97369.00;;;8.90
35582;BMP180;21687;48.900;9.188;2023-04-24T03:23:27;97370.00;;;8.90
35582;BMP180;21687;48.900;9.188;2023-04-24T03:25:53;97374.00;;;8.80
35582;BMP180;21687;48.900;9.188;2023-04-24T03:28:21;97372.00;;;8.70
35582;BMP180;21687;48.900;9.188;2023-04-24T03:30:47;97363.00;;;8.70
35582;BMP180;21687;48.900;9.188;2023-04-24T03:33:13;97369.00;;;8.70
35582;BMP180;21687;48.900;9.188;2023-04-24T03:35:40;97374.00;;;8.60
35582;BMP180;21687;48.900;9.188;2023-04-24T03:38:07;97380.00;;;8.60
35582;BMP180;21687;48.900;9.188;2023-04-24T03:40:33;97375.00;;;8.60
35582;BMP180;21687;48.900;9.188;2023-04-24T03:43:01;97379.00;;;8.60
35582;BMP180;21687;48.900;9.188;2023-04-24T03:45:28;97369.00;;;8.60
35582;BMP180;21687;48.900;9.188;2023-04-24T03:47:54;97367.00;;;8.50
35582;BMP180;21687;48.900;9.188;2023-04-24T03:50:20;97372.00;;;8.50
35582;BMP180;21687;48.900;9.188;2023-04-24T03:52:47;97356.00;;;8.50
35582;BMP180;21687;48.900;9.188;2023-04-24T03:55:13;97374.00;;;8.40
35582;BMP180;21687;48.900;9.188;2023-04-24T03:57:41;97379.00;;;8.40
35582;BMP180;21687;48.900;9.188;2023-04-24T04:00:07;97368.00;;;8.40
35582;BMP180;21687;48.900;9.188;2023-04-24T04:02:34;97383.00;;;8.40
35582;BMP180;21687;48.900;9.188;2023-04-24T04:05:01;97381.00;;;8.50
35582;BMP180;21687;48.900;9.188;2023-04-24T04:07:28;97384.00;;;8.60
35582;BMP180;21687;48.900;9.188;2023-04-24T04:09:55;97394.00;;;8.60
35582;BMP180;21687;48.900;9.188;2023-04-24T04:12:22;97393.00;;;8.70
35582;BMP180;21687;48.900;9.188;2023-04-24T04:14:48;97411.00;;;8.70
35582;BMP180;21687;48.900;9.188;2023-04-24T04:17:14;97407.00;;;8.80
35582;BMP180;21687;48.900;9.188;2023-04-24T04:19:41;97431.00;;;8.90
35582;BMP180;21687;48.900;9.188;2023-04-24T04:22:07;97461.00;;;8.90
35582;BMP180;21687;48.900;9.188;2023-04-24T04:24:34;97467.00;;;8.90
35582;BMP180;21687;48.900;9.188;2023-04-24T04:27:04;97469.00;;;8.80
35582;BMP180;21687;48.900;9.188;2023-04-24T04:29:31;97453.00;;;8.60
35582;BMP180;21687;48.900;9.188;2023-04-24T04:31:58;97451.00;;;8.40
35582;BMP180;21687;48.900;9.188;2023-04-24T04:34:24;97451.00;;;8.40
35582;BMP180;21687;48.900;9.188;2023-04-24T04:36:50;97452.00;;;8.40
35582;BMP180;21687;48.900;9.188;2023-04-24T04:39:17;97451.00;;;8.40
35582;BMP180;21687;48.900;9.188;2023-04-24T04:41:44;97473.00;;;8.30
35582;BMP180;21687;48.900;9.188;2023-04-24T04:44:14;97469.00;;;8.40
35582;BMP180;21687;48.900;9.188;2023-04-24T04:46:41;97483.00;;;8.40
35582;BMP180;21687;48.900;9.188;2023-04-24T04:49:08;97478.00;;;8.40
35582;BMP180;21687;48.900;9.188;2023-04-24T04:51:35;97480.00;;;8.40
35582;BMP180;21687;48.900;9.188;2023-04-24T04:54:01;97476.00;;;8.30
35582;BMP180;21687;48.900;9.188;2023-04-24T04:56:30;97472.00;;;8.20
35582;BMP180;21687;48.900;9.188;2023-04-24T04:58:57;97484.00;;;8.20
35582;BMP180;21687;48.900;9.188;2023-04-24T05:01:23;97495.00;;;8.20
35582;BMP180;21687;48.900;9.188;2023-04-24T05:03:50;97505.00;;;8.30
35582;BMP180;21687;48.900;9.188;2023-04-24T05:06:16;97505.00;;;8.30
35582;BMP180;21687;48.900;9.188;2023-04-24T05:08:43;97502.00;;;8.30
35582;BMP180;21687;48.900;9.188;2023-04-24T05:11:09;97520.00;;;8.20
35582;BMP180;21687;48.900;9.188;2023-04-24T05:13:35;97518.00;;;8.20
35582;BMP180;21687;48.900;9.188;2023-04-24T05:16:01;97530.00;;;8.20
35582;BMP180;21687;48.900;9.188;2023-04-24T05:18:28;97524.00;;;8.10
35582;BMP180;21687;48.900;9.188;2023-04-24T05:20:54;97528.00;;;8.10
35582;BMP180;21687;48.900;9.188;2023-04-24T05:23:21;97537.00;;;8.20
35582;BMP180;21687;48.900;9.188;2023-04-24T05:25:48;97541.00;;;8.20
35582;BMP180;21687;48.900;9.188;2023-04-24T05:28:14;97542.00;;;8.20
35582;BMP180;21687;48.900;9.188;2023-04-24T05:30:41;97536.00;;;8.30
35582;BMP180;21687;48.900;9.188;2023-04-24T05:33:07;97550.00;;;8.30
35582;BMP180;21687;48.900;9.188;2023-04-24T05:35:35;97542.00;;;8.30
35582;BMP180;21687;48.900;9.188;2023-04-24T05:38:01;97556.00;;;8.30
35582;BMP180;21687;48.900;9.188;2023-04-24T05:40:27;97564.00;;;8.30
35582;BMP180;21687;48.900;9.188;2023-04-24T05:42:53;97563.00;;;8.30
35582;BMP180;21687;48.900;9.188;2023-04-24T05:45:19;97567.00;;;8.30
35582;BMP180;21687;48.900;9.188;2023-04-24T05:47:46;97568.00;;;8.30
35582;BMP180;21687;48.900;9.188;2023-04-24T05:50:13;97575.00;;;8.20
35582;BMP180;21687;48.900;9.188;2023-04-24T05:52:40;97577.00;;;8.20
35582;BMP180;21687;48.900;9.188;2023-04-24T05:55:07;97564.00;;;8.20
35582;BMP180;21687;48.900;9.188;2023-04-24T05:57:33;97574.00;;;8.20
35582;BMP180;21687;48.900;9.188;2023-04-24T06:00:00;97571.00;;;8.30
35582;BMP180;21687;48.900;9.188;2023-04-24T06:02:26;97581.00;;;8.50
35582;BMP180;21687;48.900;9.188;2023-04-24T06:04:53;97583.00;;;8.60
35582;BMP180;21687;48.900;9.188;2023-04-24T06:07:19;97571.00;;;8.70
35582;BMP180;21687;48.900;9.188;2023-04-24T06:09:49;97580.00;;;8.70
35582;BMP180;21687;48.900;9.188;2023-04-24T06:12:15;97588.00;;;8.70
35582;BMP180;21687;48.900;9.188;2023-04-24T06:14:41;97592.00;;;8.60
35582;BMP180;21687;48.900;9.188;2023-04-24T06:17:08;97588.00;;;8.60
35582;BMP180;21687;48.900;9.188;2023-04-24T06:19:34;97587.00;;;8.60
35582;BMP180;21687;48.900;9.188;2023-04-24T06:22:00;97586.00;;;8.70
35582;BMP180;21687;48.900;9.188;2023-04-24T06:24:29;97588.00;;;8.90
35582;BMP180;21687;48.900;9.188;2023-04-24T06:26:56;97579.00;;;9.30
35582;BMP180;21687;48.900;9.188;2023-04-24T06:29:23;97579.00;;;9.80
35582;BMP180;21687;48.900;9.188;2023-04-24T06:31:50;97574.00;;;10.50
35582;BMP180;21687;48.900;9.188;2023-04-24T06:34:16;97579.00;;;11.20
35582;BMP180;21687;48.900;9.188;2023-04-24T06:36:42;97577.00;;;11.40
35582;BMP180;21687;48.900;9.188;2023-04-24T06:39:09;97576.00;;;11.50
35582;BMP180;21687;48.900;9.188;2023-04-24T06:41:35;97582.00;;;11.40
35582;BMP180;21687;48.900;9.188;2023-04-24T06:44:02;97568.00;;;11.20
35582;BMP180;21687;48.900;9.188;2023-04-24T06:46:28;97586.00;;;11.00
35582;BMP180;21687;48.900;9.188;2023-04-24T06:48:54;97572.00;;;10.90
35582;BMP180;21687;48.900;9.188;2023-04-24T06:51:24;97577.00;;;10.60
35582;BMP180;21687;48.900;9.188;2023-04-24T06:53:53;97580.00;;;10.70
35582;BMP180;21687;48.900;9.188;2023-04-24T06:56:19;97574.00;;;10.90
35582;BMP180;21687;48.900;9.188;2023-04-24T06:58:46;97581.00;;;11.20
35582;BMP180;21687;48.900;9.188;2023-04-24T07:01:13;97583.00;;;11.50
35582;BMP180;21687;48.900;9.188;2023-04-24T07:03:39;97586.00;;;11.60
35582;BMP180;21687;48.900;9.188;2023-04-24T07:06:06;97589.00;;;11.50
35582;BMP180;21687;48.900;9.188;2023-04-24T07:08:32;97585.00;;;12.20
35582;BMP180;21687;48.900;9.188;2023-04-24T07:10:59;97582.00;;;12.60
35582;BMP180;21687;48.900;9.188;2023-04-24T07:13:25;97584.00;;;12.70
35582;BMP180;21687;48.900;9.188;2023-04-24T07:15:53;97579.00;;;12.50
35582;BMP180;21687;48.900;9.188;2023-04-24T07:18:20;97583.00;;;12.30
35582;BMP180;21687;48.900;9.188;2023-04-24T07:20:47;97589.00;;;11.90
35582;BMP180;21687;48.900;9.188;2023-04-24T07:23:13;97599.00;;;11.60
35582;BMP180;21687;48.900;9.188;2023-04-24T07:25:39;97603.00;;;11.50
35582;BMP180;21687;48.900;9.188;2023-04-24T07:28:06;97616.00;;;11.50
35582;BMP180;21687;48.900;9.188;2023-04-24T07:30:32;97610.00;;;11.30
35582;BMP180;21687;48.900;9.188;2023-04-24T07:32:59;97599.00;;;11.60
35582;BMP180;21687;48.900;9.188;2023-04-24T07:35:26;97603.00;;;12.10
35582;BMP180;21687;48.900;9.188;2023-04-24T07:37:56;97610.00;;;12.50
35582;BMP180;21687;48.900;9.188;2023-04-24T07:40:22;97613.00;;;12.40
35582;BMP180;21687;48.900;9.188;2023-04-24T07:42:49;97619.00;;;12.20
35582;BMP180;21687;48.900;9.188;2023-04-24T07:45:15;97627.00;;;12.00
35582;BMP180;21687;48.900;9.188;2023-04-24T07:47:42;97620.00;;;12.00
35582;BMP180;21687;48.900;9.188;2023-04-24T07:50:12;97638.00;;;11.90
35582;BMP180;21687;48.900;9.188;2023-04-24T07:52:39;97638.00;;;11.70
35582;BMP180;21687;48.900;9.188;2023-04-24T07:55:06;97644.00;;;11.70
35582;BMP180;21687;48.900;9.188;2023-04-24T07:57:32;97648.00;;;11.70
35582;BMP180;21687;48.900;9.188;2023-04-24T07:59:59;97641.00;;;12.00
35582;BMP180;21687;48.900;9.188;2023-04-24T08:02:25;97652.00;;;12.30
35582;BMP180;21687;48.900;9.188;2023-04-24T08:04:55;97655.00;;;11.90
35582;BMP180;21687;48.900;9.188;2023-04-24T08:07:22;97651.00;;;11.60
35582;BMP180;21687;48.900;9.188;2023-04-24T08:09:48;97661.00;;;11.50
35582;BMP180;21687;48.900;9.188;2023-04-24T08:12:15;97660.00;;;11.40
35582;BMP180;21687;48.900;9.188;2023-04-24T08:14:41;97664.00;;;11.80
35582;BMP180;21687;48.900;9.188;2023-04-24T08:17:07;97668.00;;;11.90
35582;BMP180;21687;48.900;9.188;2023-04-24T08:19:33;97669.00;;;12.10
35582;BMP180;21687;48.900;9.188;2023-04-24T08:22:00;97677.00;;;12.00
35582;BMP180;21687;48.900;9.188;2023-04-24T08:24:26;97674.00;;;11.90
35582;BMP180;21687;48.900;9.188;2023-04-24T08:26:53;97677.00;;;11.80
35582;BMP180;21687;48.900;9.188;2023-04-24T08:29:20;97671.00;;;12.00
35582;BMP180;21687;48.900;9.188;2023-04-24T08:31:46;97690.00;;;12.20
35582;BMP180;21687;48.900;9.188;2023-04-24T08:34:13;97680.00;;;12.00
35582;BMP180;21687;48.900;9.188;2023-04-24T08:36:39;97685.00;;;11.90
35582;BMP180;21687;48.900;9.188;2023-04-24T08:39:06;97682.00;;;12.10
35582;BMP180;21687;48.900;9.188;2023-04-24T08:41:34;97688.00;;;12.30
35582;BMP180;21687;48.900;9.188;2023-04-24T08:44:02;97694.00;;;12.70
35582;BMP180;21687;48.900;9.188;2023-04-24T08:46:30;97700.00;;;12.80
35582;BMP180;21687;48.900;9.188;2023-04-24T08:48:57;97697.00;;;13.10
35582;BMP180;21687;48.900;9.188;2023-04-24T08:51:25;97695.00;;;13.30
35582;BMP180;21687;48.900;9.188;2023-04-24T08:53:54;97688.00;;;13.60
35582;BMP180;21687;48.900;9.188;2023-04-24T08:56:22;97694.00;;;13.70
35582;BMP180;21687;48.900;9.188;2023-04-24T08:58:50;97698.00;;;13.90
35582;BMP180;21687;48.900;9.188;2023-04-24T09:01:18;97700.00;;;13.80
35582;BMP180;21687;48.900;9.188;2023-04-24T09:03:49;97702.00;;;13.60
35582;BMP180;21687;48.900;9.188;2023-04-24T09:06:18;97693.00;;;13.70
35582;BMP180;21687;48.900;9.188;2023-04-24T09:08:45;97696.00;;;14.30
35582;BMP180;21687;48.900;9.188;2023-04-24T09:11:14;97693.00;;;14.60
35582;BMP180;21687;48.900;9.188;2023-04-24T09:13:40;97696.00;;;14.90
35582;BMP180;21687;48.900;9.188;2023-04-24T09:16:07;97703.00;;;14.80
35582;BMP180;21687;48.900;9.188;2023-04-24T09:18:33;97708.00;;;14.20
35582;BMP180;21687;48.900;9.188;2023-04-24T09:21:08;97704.00;;;13.40
35582;BMP180;21687;48.900;9.188;2023-04-24T09:23:34;97728.00;;;12.60
35582;BMP180;21687;48.900;9.188;2023-04-24T09:26:01;97728.00;;;12.50
35582;BMP180;21687;48.900;9.188;2023-04-24T09:28:35;97727.00;;;12.30
35582;BMP180;21687;48.900;9.188;2023-04-24T09:31:14;97729.00;;;12.10
35582;BMP180;21687;48.900;9.188;2023-04-24T09:33:54;97729.00;;;11.80
35582;BMP180;21687;48.900;9.188;2023-04-24T09:36:28;97728.00;;;11.90
35582;BMP180;21687;48.900;9.188;2023-04-24T09:38:59;97744.00;;;12.40
35582;BMP180;21687;48.900;9.188;2023-04-24T09:41:26;97729.00;;;13.20
35582;BMP180;21687;48.900;9.188;2023-04-24T09:43:54;97734.00;;;13.80
35582;BMP180;21687;48.900;9.188;2023-04-24T09:46:21;97735.00;;;13.60
35582;BMP180;21687;48.900;9.188;2023-04-24T09:48:48;97739.00;;;13.30
35582;BMP180;21687;48.900;9.188;2023-04-24T09:51:14;97734.00;;;13.30
35582;BMP180;21687;48.900;9.188;2023-04-24T09:53:46;97735.00;;;13.30
35582;BMP180;21687;48.900;9.188;2023-04-24T09:56:12;97737.00;;;12.80
35582;BMP180;21687;48.900;9.188;2023-04-24T09:58:39;97738.00;;;12.40
35582;BMP180;21687;48.900;9.188;2023-04-24T10:01:06;97745.00;;;12.10
35582;BMP180;21687;48.900;9.188;2023-04-24T10:03:33;97761.00;;;12.10
35582;BMP180;21687;48.900;9.188;2023-04-24T10:06:03;97758.00;;;12.30
35582;BMP180;21687;48.900;9.188;2023-04-24T10:08:36;97760.00;;;12.40
35582;BMP180;21687;48.900;9.188;2023-04-24T10:11:03;97752.00;;;12.40
35582;BMP180;21687;48.900;9.188;2023-04-24T10:13:29;97762.00;;;12.30
35582;BMP180;21687;48.900;9.188;2023-04-24T10:15:56;97767.00;;;12.20
35582;BMP180;21687;48.900;9.188;2023-04-24T10:18:25;97765.00;;;12.20
35582;BMP180;21687;48.900;9.188;2023-04-24T10:20:52;97773.00;;;12.10
35582;BMP180;21687;48.900;9.188;2023-04-24T10:23:20;97786.00;;;12.10
35582;BMP180;21687;48.900;9.188;2023-04-24T10:25:49;97787.00;;;12.00
35582;BMP180;21687;48.900;9.188;2023-04-24T10:28:18;97788.00;;;12.00
35582;BMP180;21687;48.900;9.188;2023-04-24T10:30:46;97790.00;;;12.00
35582;BMP180;21687;48.900;9.188;2023-04-24T10:33:12;97788.00;;;12.10
35582;BMP180;21687;48.900;9.188;2023-04-24T10:35:45;97793.00;;;12.10
35582;BMP180;21687;48.900;9.188;2023-04-24T10:38:18;97799.00;;;11.80
35582;BMP180;21687;48.900;9.188;2023-04-24T10:40:48;97800.00;;;11.60
35582;BMP180;21687;48.900;9.188;2023-04-24T10:43:17;97796.00;;;11.30
35582;BMP180;21687;48.900;9.188;2023-04-24T10:46:04;97796.00;;;11.30
35582;BMP180;21687;48.900;9.188;2023-04-24T10:48:32;97809.00;;;11.40
35582;BMP180;21687;48.900;9.188;2023-04-24T10:50:59;97815.00;;;11.50
35582;BMP180;21687;48.900;9.188;2023-04-24T10:53:28;97816.00;;;11.50
35582;BMP180;21687;48.900;9.188;2023-04-24T10:56:03;97815.00;;;11.80
35582;BMP180;21687;48.900;9.188;2023-04-24T10:58:56;97810.00;;;11.80
35582;BMP180;21687;48.900;9.188;2023-04-24T11:01:31;97815.00;;;12.10
35582;BMP180;21687;48.900;9.188;2023-04-24T11:04:02;97824.00;;;12.40
35582;BMP180;21687;48.900;9.188;2023-04-24T11:06:36;97824.00;;;12.50
35582;BMP180;21687;48.900;9.188;2023-04-24T11:09:07;97815.00;;;12.70
35582;BMP180;21687;48.900;9.188;2023-04-24T11:11:38;97823.00;;;12.80
35582;BMP180;21687;48.900;9.188;2023-04-24T11:14:08;97822.00;;;12.60
35582;BMP180;21687;48.900;9.188;2023-04-24T11:16:51;97833.00;;;12.50
35582;BMP180;21687;48.900;9.188;2023-04-24T11:22:04;97831.00;;;12.70
35582;BMP180;21687;48.900;9.188;2023-04-24T11:27:20;97829.00;;;13.10
35582;BMP180;21687;48.900;9.188;2023-04-24T11:30:00;97822.00;;;13.30
35582;BMP180;21687;48.900;9.188;2023-04-24T11:35:24;97843.00;;;13.10
35582;BMP180;21687;48.900;9.188;2023-04-24T11:37:52;97852.00;;;13.10
35582;BMP180;21687;48.900;9.188;2023-04-24T11:40:20;97821.00;;;12.80
35582;BMP180;21687;48.900;9.188;2023-04-24T11:42:50;97837.00;;;13.10
35582;BMP180;21687;48.900;9.188;2023-04-24T11:45:35;97846.00;;;13.40
35582;BMP180;21687;48.900;9.188;2023-04-24T11:48:03;97844.00;;;13.30
35582;BMP180;21687;48.900;9.188;2023-04-24T11:50:29;97842.00;;;13.20
35582;BMP180;21687;48.900;9.188;2023-04-24T11:52:56;97845.00;;;13.30
35582;BMP180;21687;48.900;9.188;2023-04-24T11:57:51;97850.00;;;13.70
35582;BMP180;21687;48.900;9.188;2023-04-24T12:00:20;97859.00;;;13.70
35582;BMP180;21687;48.900;9.188;2023-04-24T12:02:47;97847.00;;;13.30
35582;BMP180;21687;48.900;9.188;2023-04-24T12:05:40;97847.00;;;13.00
35582;BMP180;21687;48.900;9.188;2023-04-24T12:08:07;97849.00;;;12.90
35582;BMP180;21687;48.900;9.188;2023-04-24T12:10:33;97851.00;;;12.90
35582;BMP180;21687;48.900;9.188;2023-04-24T12:13:00;97861.00;;;12.90
35582;BMP180;21687;48.900;9.188;2023-04-24T12:15:27;97863.00;;;13.10
35582;BMP180;21687;48.900;9.188;2023-04-24T12:17:54;97860.00;;;13.10
35582;BMP180;21687;48.900;9.188;2023-04-24T12:20:41;97859.00;;;13.30
35582;BMP180;21687;48.900;9.188;2023-04-24T12:23:07;97858.00;;;13.10
35582;BMP180;21687;48.900;9.188;2023-04-24T12:25:33;97859.00;;;12.80
35582;BMP180;21687;48.900;9.188;2023-04-24T12:30:31;97870.00;;;12.50
35582;BMP180;21687;48.900;9.188;2023-04-24T12:32:58;97875.00;;;12.30
35582;BMP180;21687;48.900;9.188;2023-04-24T12:35:27;97876.00;;;12.10
35582;BMP180;21687;48.900;9.188;2023-04-24T12:37:53;97880.00;;;12.00
35582;BMP180;21687;48.900;9.188;2023-04-24T12:40:21;97872.00;;;11.70
35582;BMP180;21687;48.900;9.188;2023-04-24T12:42:51;97887.00;;;11.80
35582;BMP180;21687;48.900;9.188;2023-04-24T12:45:20;97884.00;;;11.80
35582;BMP180;21687;48.900;9.188;2023-04-24T12:47:49;97888.00;;;12.10
35582;BMP180;21687;48.900;9.188;2023-04-24T12:50:16;97877.00;;;12.20
35582;BMP180;21687;48.900;9.188;2023-04-24T12:52:43;97879.00;;;12.30
35582;BMP180;21687;48.900;9.188;2023-04-24T12:55:10;97891.00;;;12.50
35582;BMP180;21687;48.900;9.188;2023-04-24T12:57:38;97887.00;;;12.50
35582;BMP180;21687;48.900;9.188;2023-04-24T13:00:06;97886.00;;;12.70
35582;BMP180;21687;48.900;9.188;2023-04-24T13:02:33;97892.00;;;12.70
35582;BMP180;21687;48.900;9.188;2023-04-24T13:05:00;97888.00;;;12.80
35582;BMP180;21687;48.900;9.188;2023-04-24T13:07:27;97884.00;;;12.80
35582;BMP180;21687;48.900;9.188;2023-04-24T13:09:55;97870.00;;;13.20
35582;BMP180;21687;48.900;9.188;2023-04-24T13:12:21;97873.00;;;13.40
35582;BMP180;21687;48.900;9.188;2023-04-24T13:14:49;97887.00;;;13.10
35582;BMP180;21687;48.900;9.188;2023-04-24T13:17:16;97882.00;;;12.70
35582;BMP180;21687;48.900;9.188;2023-04-24T13:19:43;97884.00;;;12.70
35582;BMP180;21687;48.900;9.188;2023-04-24T13:22:11;97893.00;;;12.50
35582;BMP180;21687;48.900;9.188;2023-04-24T13:24:38;97886.00;;;12.30
35582;BMP180;21687;48.900;9.188;2023-04-24T13:27:07;97883.00;;;12.30
35582;BMP180;21687;48.900;9.188;2023-04-24T13:29:33;97880.00;;;12.20
35582;BMP180;21687;48.900;9.188;2023-04-24T13:32:00;97881.00;;;12.40
35582;BMP180;21687;48.900;9.188;2023-04-24T13:34:26;97868.00;;;12.80
35582;BMP180;21687;48.900;9.188;2023-04-24T13:36:54;97874.00;;;13.10
35582;BMP180;21687;48.900;9.188;2023-04-24T13:39:22;97883.00;;;13.00
35582;BMP180;21687;48.900;9.188;2023-04-24T13:41:48;97874.00;;;13.10
35582;BMP180;21687;48.900;9.188;2023-04-24T13:44:16;97868.00;;;13.00
35582;BMP180;21687;48.900;9.188;2023-04-24T13:46:43;97870.00;;;13.20
35582;BMP180;21687;48.900;9.188;2023-04-24T13:49:11;97881.00;;;13.20
35582;BMP180;21687;48.900;9.188;2023-04-24T13:51:38;97874.00;;;13.30
35582;BMP180;21687;48.900;9.188;2023-04-24T13:54:04;97877.00;;;13.50
35582;BMP180;21687;48.900;9.188;2023-04-24T13:56:30;97870.00;;;13.20
35582;BMP180;21687;48.900;9.188;2023-04-24T13:58:57;97871.00;;;13.10
35582;BMP180;21687;48.900;9.188;2023-04-24T14:01:23;97859.00;;;12.90
35582;BMP180;21687;48.900;9.188;2023-04-24T14:03:54;97875.00;;;12.90
35582;BMP180;21687;48.900;9.188;2023-04-24T14:06:21;97872.00;;;13.10
35582;BMP180;21687;48.900;9.188;2023-04-24T14:08:48;97865.00;;;13.10
35582;BMP180;21687;48.900;9.188;2023-04-24T14:11:14;97868.00;;;13.10
35582;BMP180;21687;48.900;9.188;2023-04-24T14:13:42;97866.00;;;13.10
35582;BMP180;21687;48.900;9.188;2023-04-24T14:16:08;97872.00;;;12.90
35582;BMP180;21687;48.900;9.188;2023-04-24T14:18:34;97867.00;;;13.00
35582;BMP180;21687;48.900;9.188;2023-04-24T14:21:02;97873.00;;;12.90
35582;BMP180;21687;48.900;9.188;2023-04-24T14:23:29;97880.00;;;12.60
35582;BMP180;21687;48.900;9.188;2023-04-24T14:25:59;97878.00;;;12.70